Portada
METAR-TAF:

METAR-TAF

Aeroports :

Makhatxkalà, Rússia

latitud: 42-49-01N, longitud: 047-39-08E, altitud: 4 m

Observació

L'informe es va fer fa 20 minuts, a les 14:30 UTC
Vent 12 kt del Sud-Est
Temperatura 23°C
Humitat 83%
Pressió 1012 hPa
Visibilitat 10 km o més

METAR: URML 161430Z 14006MPS 9999 NSC 23/20 Q1012 R14/01//70 NOSIG RMK QFE759/1012

Hora: 17:50 (14:50 UTC)

Pronòstic

L'informe es va fer fa 50 minuts, a les 14:00 UTC
Pronòstic vàlid del 16 a les 15 UTC al 16 a les 24 UTC
Vent 10 kt del Sud/Sud-Est amb ràfegues de 19 kt
Visibilitat 10 km o més
Núvols disperses a una alçada de 2000 ft
Evolucionant progressivament
l' 16 a les 18 UTC al 16 a les 20 UTC
Vent 6 kt del Sud-Oest amb ràfegues de 16 kt

TAF: URML 161400Z 1615/1624 16005G10MPS 9999 SCT020 BECMG 1618/1620 22003G08MPS

Observacions i pronòstics meteorològics de més de 4000 aeroports (METAR i TAF).

Les estacions disponibles són els punts grocs i vermells al mapa.

Posi el ratolí al punt desitjat per veure el nom de l'estació.

Feu clic per veure les observacions i els pronòstics meteorològics.

Per canviar el mapa: feu clic els botons verds amb una creu de color negre per apropar; al botó verd amb un guió per allunyar la imatge; o en les fletxes verdes per a mapes adjacents.


METAR-TAF: